createdAt,value
2018-06-17T00:00:38.773Z,77.70
2018-06-17T00:03:12.163Z,77.10
2018-06-17T00:05:43.845Z,77.10
2018-06-17T00:08:15.406Z,76.90
2018-06-17T00:10:47.017Z,76.50
2018-06-17T00:13:18.682Z,75.70
2018-06-17T00:15:50.170Z,75.60
2018-06-17T00:18:21.949Z,75.30
2018-06-17T00:20:53.720Z,75.20
2018-06-17T00:23:26.792Z,75.20
2018-06-17T00:25:58.487Z,75.00
2018-06-17T00:28:30.176Z,75.00
2018-06-17T00:31:01.712Z,75.10
2018-06-17T00:33:33.397Z,75.20
2018-06-17T00:36:05.305Z,75.20
2018-06-17T00:38:36.891Z,75.30
2018-06-17T00:41:08.656Z,75.30
2018-06-17T00:43:40.237Z,76.00
2018-06-17T00:46:11.909Z,75.20
2018-06-17T00:48:43.645Z,75.10
2018-06-17T00:51:15.301Z,75.00
2018-06-17T00:53:46.876Z,75.10
2018-06-17T00:56:18.516Z,75.00
2018-06-17T00:58:50.262Z,74.90
2018-06-17T01:01:21.826Z,74.90
2018-06-17T01:03:53.792Z,74.90
2018-06-17T01:06:25.517Z,75.10
2018-06-17T01:08:57.172Z,75.30
2018-06-17T01:11:28.730Z,75.90
2018-06-17T01:14:00.390Z,74.90
2018-06-17T01:16:32.044Z,74.70
2018-06-17T01:19:03.638Z,74.80
2018-06-17T01:21:35.422Z,74.30
2018-06-17T01:24:07.446Z,74.90
2018-06-17T01:26:39.086Z,74.90
2018-06-17T01:29:10.732Z,74.80
2018-06-17T01:31:42.285Z,74.60
2018-06-17T01:34:14.194Z,74.60
2018-06-17T01:36:46.046Z,74.80
2018-06-17T01:39:17.757Z,74.90
2018-06-17T01:41:49.361Z,75.10
2018-06-17T01:44:20.974Z,75.10
2018-06-17T01:46:52.582Z,75.10
2018-06-17T01:49:24.294Z,76.30
2018-06-17T01:51:55.884Z,76.10
2018-06-17T01:54:27.503Z,76.60
2018-06-17T01:56:59.165Z,76.80
2018-06-17T01:59:30.725Z,76.30
2018-06-17T02:02:02.319Z,77.00
2018-06-17T02:04:39.350Z,77.40
2018-06-17T02:07:15.920Z,77.60
2018-06-17T02:09:52.314Z,78.20
2018-06-17T02:12:23.949Z,78.40
2018-06-17T02:14:57.216Z,78.60
2018-06-17T02:17:29.342Z,79.50
2018-06-17T02:20:01.167Z,78.80
2018-06-17T02:22:32.717Z,79.00
2018-06-17T02:25:04.401Z,79.10
2018-06-17T02:27:35.938Z,79.40
2018-06-17T02:30:07.874Z,79.40
2018-06-17T02:32:39.552Z,79.40
2018-06-17T02:35:11.164Z,79.10
2018-06-17T02:37:42.821Z,80.00
2018-06-17T02:40:14.461Z,78.90
2018-06-17T02:42:46.134Z,78.80
2018-06-17T02:45:22.869Z,78.70
2018-06-17T02:47:59.515Z,78.90
2018-06-17T02:50:36.030Z,79.00
2018-06-17T02:53:12.877Z,79.00
2018-06-17T02:55:44.541Z,79.00
2018-06-17T02:58:16.094Z,79.80
2018-06-17T03:00:47.641Z,79.00
2018-06-17T03:03:19.108Z,79.10
2018-06-17T03:05:50.759Z,79.50
2018-06-17T03:08:22.410Z,78.30
2018-06-17T03:10:53.973Z,78.00
2018-06-17T03:13:25.615Z,77.60
2018-06-17T03:15:57.173Z,77.70
2018-06-17T03:18:28.848Z,77.50
2018-06-17T03:21:00.373Z,78.20
2018-06-17T03:23:32.043Z,77.40
2018-06-17T03:26:08.572Z,78.00
2018-06-17T03:28:45.108Z,77.20
2018-06-17T03:31:19.851Z,77.50
2018-06-17T03:33:57.005Z,77.80
2018-06-17T03:36:28.750Z,78.40
2018-06-17T03:39:00.473Z,78.70
2018-06-17T03:41:32.171Z,79.60
2018-06-17T03:44:03.733Z,79.50
2018-06-17T03:46:35.623Z,80.10
2018-06-17T03:49:07.456Z,80.70
2018-06-17T03:51:39.110Z,81.00
2018-06-17T03:54:10.449Z,81.40
2018-06-17T03:56:41.997Z,81.50
2018-06-17T03:59:13.761Z,82.00
2018-06-17T04:01:45.417Z,81.10
2018-06-17T04:04:17.517Z,81.10
2018-06-17T04:06:49.138Z,81.10
2018-06-17T04:09:20.718Z,81.20
2018-06-17T04:11:52.417Z,81.00
2018-06-17T04:14:24.036Z,80.90
2018-06-17T04:16:58.786Z,80.70
2018-06-17T04:19:30.393Z,80.60
2018-06-17T04:22:02.061Z,80.60
2018-06-17T04:24:33.600Z,80.30
2018-06-17T04:27:05.464Z,80.30
2018-06-17T04:29:37.265Z,80.10
2018-06-17T04:32:08.913Z,80.10
2018-06-17T04:34:40.660Z,79.80
2018-06-17T04:37:12.440Z,79.70
2018-06-17T04:39:44.161Z,79.60
2018-06-17T04:42:15.710Z,79.40
2018-06-17T04:44:47.372Z,79.40
2018-06-17T04:47:19.021Z,79.00
2018-06-17T04:49:50.682Z,78.40
2018-06-17T04:52:22.239Z,78.40
2018-06-17T04:54:53.825Z,79.00
2018-06-17T04:57:25.446Z,78.20
2018-06-17T04:59:57.133Z,77.80
2018-06-17T05:02:28.790Z,78.10
2018-06-17T05:05:00.473Z,78.00
2018-06-17T05:07:32.096Z,78.00
2018-06-17T05:10:03.631Z,77.70
2018-06-17T05:12:35.312Z,77.70
2018-06-17T05:15:07.191Z,77.40
2018-06-17T05:17:38.899Z,77.30
2018-06-17T05:20:10.562Z,77.50
2018-06-17T05:22:42.118Z,76.90
2018-06-17T05:25:13.769Z,77.10
2018-06-17T05:27:45.330Z,76.80
2018-06-17T05:30:16.986Z,76.60
2018-06-17T05:32:48.435Z,77.00
2018-06-17T05:35:20.100Z,76.40
2018-06-17T05:37:51.937Z,75.70
2018-06-17T05:40:23.670Z,75.30
2018-06-17T05:42:55.366Z,74.40
2018-06-17T05:45:26.946Z,73.80
2018-06-17T05:47:58.685Z,74.30
2018-06-17T05:50:30.165Z,74.30
2018-06-17T05:53:01.945Z,73.50
2018-06-17T05:55:33.596Z,73.00
2018-06-17T05:58:05.410Z,72.80
2018-06-17T06:00:37.161Z,72.80
2018-06-17T06:03:08.744Z,72.40
2018-06-17T06:05:40.370Z,73.40
2018-06-17T06:08:12.033Z,72.20
2018-06-17T06:10:43.634Z,71.40
2018-06-17T06:13:15.362Z,71.10
2018-06-17T06:15:47.004Z,71.30
2018-06-17T06:18:18.656Z,71.20
2018-06-17T06:20:50.324Z,71.00
2018-06-17T06:25:52.907Z,69.80
2018-06-17T06:30:55.689Z,69.40
2018-06-17T06:33:27.251Z,69.30
2018-06-17T06:35:58.914Z,69.20
2018-06-17T06:38:30.405Z,69.10
2018-06-17T06:41:02.155Z,68.50
2018-06-17T06:43:33.774Z,68.20
2018-06-17T06:46:05.444Z,68.40
2018-06-17T06:48:36.998Z,68.10
2018-06-17T06:51:08.785Z,68.80
2018-06-17T06:53:40.412Z,68.40
2018-06-17T06:56:12.029Z,68.30
2018-06-17T06:58:43.609Z,68.10
2018-06-17T07:01:20.502Z,68.20
2018-06-17T07:04:08.439Z,67.70
2018-06-17T07:06:56.071Z,68.80
2018-06-17T07:10:41.617Z,68.30
2018-06-17T07:13:13.161Z,68.30
2018-06-17T07:16:01.972Z,67.80
2018-06-17T07:18:39.084Z,68.00
2018-06-17T07:21:11.153Z,68.80
2018-06-17T07:23:42.891Z,67.20
2018-06-17T07:26:44.699Z,66.50
2018-06-17T07:29:34.628Z,66.00
2018-06-17T07:32:06.405Z,65.70
2018-06-17T07:34:37.973Z,65.40
2018-06-17T07:37:10.622Z,65.50
2018-06-17T07:40:27.254Z,64.60
2018-06-17T07:42:59.097Z,64.60
2018-06-17T07:45:36.042Z,64.70
2018-06-17T07:48:09.530Z,65.20
2018-06-17T07:51:00.541Z,65.80
2018-06-17T07:53:36.533Z,65.50
2018-06-17T07:56:10.764Z,65.70
2018-06-17T08:01:19.549Z,65.90
2018-06-17T08:03:53.786Z,65.70
2018-06-17T08:06:28.194Z,65.20
2018-06-17T08:09:01.621Z,65.20
2018-06-17T08:11:36.845Z,65.20
2018-06-17T08:14:11.492Z,64.60
2018-06-17T08:16:43.845Z,65.60
2018-06-17T08:19:16.061Z,65.30
2018-06-17T08:21:50.079Z,65.10
2018-06-17T08:24:23.454Z,65.50
2018-06-17T08:26:55.373Z,65.80
2018-06-17T08:29:27.221Z,65.60
2018-06-17T08:32:01.419Z,65.20
2018-06-17T08:34:35.493Z,65.20
2018-06-17T08:37:07.448Z,64.30
2018-06-17T08:39:39.190Z,63.50
2018-06-17T08:42:11.091Z,64.10
2018-06-17T08:44:42.824Z,64.80
2018-06-17T08:47:14.610Z,65.60
2018-06-17T08:49:46.193Z,65.90
2018-06-17T08:52:18.818Z,66.50
2018-06-17T08:54:53.016Z,66.60
2018-06-17T08:57:25.811Z,67.10
2018-06-17T08:59:59.126Z,67.30
2018-06-17T09:02:32.785Z,67.50
2018-06-17T09:05:05.865Z,67.50
2018-06-17T09:07:39.073Z,67.70
2018-06-17T09:10:14.074Z,66.40
2018-06-17T09:12:48.143Z,66.50
2018-06-17T09:15:20.760Z,66.40
2018-06-17T09:17:52.434Z,66.50
2018-06-17T09:20:29.099Z,65.70
2018-06-17T09:23:02.271Z,65.90
2018-06-17T09:25:34.892Z,65.30
2018-06-17T09:28:06.253Z,65.00
2018-06-17T09:30:38.894Z,64.70
2018-06-17T09:33:10.171Z,65.00
2018-06-17T09:35:41.498Z,63.80
2018-06-17T09:38:13.483Z,63.00
2018-06-17T09:40:45.265Z,61.60
2018-06-17T09:43:16.956Z,61.50
2018-06-17T09:45:49.041Z,61.10
2018-06-17T09:48:20.890Z,61.00
2018-06-17T09:50:52.605Z,61.00
2018-06-17T09:53:24.300Z,60.70
2018-06-17T09:55:56.010Z,60.60
2018-06-17T09:58:27.746Z,60.80
2018-06-17T10:00:59.477Z,61.00
2018-06-17T10:03:31.132Z,60.80
2018-06-17T10:06:02.860Z,60.90
2018-06-17T10:08:34.649Z,60.70
2018-06-17T10:11:07.454Z,60.00
2018-06-17T10:13:43.308Z,59.90
2018-06-17T10:16:15.685Z,59.90
2018-06-17T10:18:47.337Z,60.10
2018-06-17T10:21:19.187Z,60.10
2018-06-17T10:23:50.834Z,60.40
2018-06-17T10:26:22.517Z,61.20
2018-06-17T10:28:54.213Z,61.00
2018-06-17T10:31:26.010Z,61.70
2018-06-17T10:33:57.636Z,62.50
2018-06-17T10:36:29.346Z,62.20
2018-06-17T10:41:31.529Z,62.40
2018-06-17T10:44:02.817Z,63.60
2018-06-17T10:46:34.093Z,62.20
2018-06-17T10:49:07.005Z,62.10
2018-06-17T10:54:09.515Z,62.40
2018-06-17T10:56:41.247Z,61.90
2018-06-17T10:59:12.837Z,62.60
2018-06-17T11:01:44.455Z,62.30
2018-06-17T11:04:16.417Z,62.40
2018-06-17T11:06:48.367Z,62.60
2018-06-17T11:09:20.041Z,62.20
2018-06-17T11:11:51.593Z,62.40
2018-06-17T11:14:23.151Z,62.20
2018-06-17T11:16:54.727Z,63.00
2018-06-17T11:19:26.353Z,62.30
2018-06-17T11:21:57.928Z,61.30
2018-06-17T11:24:29.624Z,61.90
2018-06-17T11:27:01.328Z,61.30
2018-06-17T11:29:32.904Z,61.00
2018-06-17T11:32:04.594Z,61.10
2018-06-17T11:34:36.276Z,60.40
2018-06-17T11:37:07.862Z,60.30
2018-06-17T11:39:39.505Z,60.50
2018-06-17T11:44:42.376Z,60.70
2018-06-17T11:47:14.013Z,60.00
2018-06-17T11:49:45.721Z,59.60
2018-06-17T11:52:17.269Z,59.50
2018-06-17T11:54:48.937Z,59.30
2018-06-17T11:57:28.267Z,59.50
2018-06-17T12:00:00.438Z,60.20
2018-06-17T12:02:32.013Z,58.90
2018-06-17T12:05:03.613Z,59.80
2018-06-17T12:07:35.217Z,59.40
2018-06-17T12:10:07.177Z,59.20
2018-06-17T12:12:38.452Z,58.90
2018-06-17T12:15:09.853Z,58.50
2018-06-17T12:17:41.688Z,58.40
2018-06-17T12:20:13.388Z,58.00
2018-06-17T12:22:46.675Z,57.80
2018-06-17T12:25:18.885Z,56.70
2018-06-17T12:27:50.712Z,56.60
2018-06-17T12:30:23.680Z,56.30
2018-06-17T12:32:55.353Z,55.90
2018-06-17T12:35:44.088Z,55.90
2018-06-17T12:38:15.686Z,55.40
2018-06-17T12:40:47.402Z,56.40
2018-06-17T12:43:19.553Z,55.80
2018-06-17T12:45:51.186Z,54.60
2018-06-17T12:48:22.900Z,54.50
2018-06-17T12:50:54.481Z,54.10
2018-06-17T12:53:26.008Z,54.70
2018-06-17T12:55:57.670Z,54.20
2018-06-17T12:58:28.947Z,54.30
2018-06-17T13:01:00.241Z,53.70
2018-06-17T13:03:31.522Z,53.80
2018-06-17T13:06:02.938Z,53.90
2018-06-17T13:08:34.562Z,54.40
2018-06-17T13:11:06.286Z,54.30
2018-06-17T13:13:38.367Z,54.20
2018-06-17T13:16:10.133Z,53.70
2018-06-17T13:18:41.888Z,53.80
2018-06-17T13:21:13.652Z,52.50
2018-06-17T13:23:45.275Z,53.40
2018-06-17T13:26:16.933Z,53.50
2018-06-17T13:28:48.517Z,54.60
2018-06-17T13:31:20.282Z,54.30
2018-06-17T13:33:51.999Z,53.00
2018-06-17T13:36:23.590Z,52.00
2018-06-17T13:38:55.205Z,52.00
2018-06-17T13:41:26.796Z,52.50
2018-06-17T13:43:58.570Z,52.60
2018-06-17T13:46:30.202Z,52.50
2018-06-17T13:49:01.950Z,52.40
2018-06-17T13:51:33.517Z,52.00
2018-06-17T13:54:05.287Z,52.50
2018-06-17T13:56:37.144Z,53.20
2018-06-17T13:59:08.772Z,53.00
2018-06-17T14:01:40.528Z,53.60
2018-06-17T14:04:12.184Z,54.00
2018-06-17T14:06:43.845Z,52.70
2018-06-17T14:09:15.561Z,51.80
2018-06-17T14:11:47.164Z,52.10
2018-06-17T14:14:18.818Z,51.90
2018-06-17T14:16:50.353Z,52.00
2018-06-17T14:19:22.027Z,52.80
2018-06-17T14:21:53.752Z,51.10
2018-06-17T14:24:25.361Z,51.50
2018-06-17T14:26:56.949Z,50.50
2018-06-17T14:29:28.574Z,49.90
2018-06-17T14:32:00.313Z,50.40
2018-06-17T14:34:31.881Z,51.10
2018-06-17T14:37:03.520Z,50.40
2018-06-17T14:42:10.796Z,49.30
2018-06-17T14:44:47.346Z,49.20
2018-06-17T14:47:23.931Z,49.70
2018-06-17T14:50:00.666Z,49.90
2018-06-17T14:52:37.210Z,49.60
2018-06-17T14:55:08.869Z,49.30
2018-06-17T14:57:40.441Z,49.70
2018-06-17T15:00:12.133Z,49.40
2018-06-17T15:02:43.757Z,50.10
2018-06-17T15:05:15.393Z,50.30
2018-06-17T15:07:46.939Z,49.90
2018-06-17T15:10:18.601Z,50.50
2018-06-17T15:12:50.180Z,49.50
2018-06-17T15:15:21.918Z,50.40
2018-06-17T15:17:53.515Z,49.50
2018-06-17T15:20:25.229Z,49.30
2018-06-17T15:22:56.986Z,49.70
2018-06-17T15:25:28.555Z,49.60
2018-06-17T15:28:00.209Z,50.40
2018-06-17T15:30:31.861Z,50.50
2018-06-17T15:33:08.413Z,50.10
2018-06-17T15:35:44.745Z,50.30
2018-06-17T15:38:21.297Z,49.90
2018-06-17T15:40:58.139Z,49.80
2018-06-17T15:43:29.742Z,50.20
2018-06-17T15:46:01.454Z,50.90
2018-06-17T15:48:33.264Z,50.70
2018-06-17T15:51:05.109Z,51.10
2018-06-17T15:53:36.721Z,50.60
2018-06-17T15:56:08.390Z,50.70
2018-06-17T15:58:40.244Z,50.50
2018-06-17T16:01:11.831Z,49.90
2018-06-17T16:03:43.661Z,50.20
2018-06-17T16:06:15.213Z,50.30
2018-06-17T16:08:46.865Z,49.70
2018-06-17T16:11:18.629Z,50.40
2018-06-17T16:14:53.165Z,50.10
2018-06-17T16:17:29.599Z,50.30
2018-06-17T16:20:06.109Z,49.60
2018-06-17T16:22:37.906Z,50.00
2018-06-17T16:25:09.722Z,49.90
2018-06-17T16:27:41.330Z,50.30
2018-06-17T16:30:12.956Z,51.10
2018-06-17T16:32:44.689Z,50.60
2018-06-17T16:35:16.238Z,50.60
2018-06-17T16:37:47.909Z,51.20
2018-06-17T16:40:19.469Z,50.80
2018-06-17T16:42:51.109Z,51.00
2018-06-17T16:45:22.721Z,50.00
2018-06-17T16:47:54.349Z,50.10
2018-06-17T16:50:25.868Z,50.10
2018-06-17T16:53:02.504Z,49.90
2018-06-17T16:55:39.049Z,49.90
2018-06-17T16:58:15.693Z,49.80
2018-06-17T17:00:47.249Z,50.10
2018-06-17T17:03:18.829Z,49.10
2018-06-17T17:05:50.561Z,49.40
2018-06-17T17:08:22.109Z,49.50
2018-06-17T17:10:53.779Z,50.60
2018-06-17T17:13:25.488Z,49.70
2018-06-17T17:15:57.117Z,50.10
2018-06-17T17:18:28.837Z,50.20
2018-06-17T17:21:00.558Z,50.30
2018-06-17T17:23:32.280Z,50.50
2018-06-17T17:26:03.968Z,50.90
2018-06-17T17:28:35.657Z,50.80
2018-06-17T17:31:07.363Z,51.00
2018-06-17T17:33:43.808Z,51.50
2018-06-17T17:36:20.352Z,51.90
2018-06-17T17:38:56.965Z,51.80
2018-06-17T17:41:28.621Z,52.00
2018-06-17T17:44:00.158Z,52.40
2018-06-17T17:46:36.870Z,52.80
2018-06-17T17:49:08.549Z,53.60
2018-06-17T17:51:44.284Z,54.20
2018-06-17T17:54:15.897Z,54.40
2018-06-17T17:56:52.972Z,54.70
2018-06-17T17:59:25.366Z,54.60
2018-06-17T18:01:56.932Z,54.80
2018-06-17T18:04:28.622Z,55.00
2018-06-17T18:07:00.238Z,54.90
2018-06-17T18:09:32.142Z,54.80
2018-06-17T18:12:04.085Z,54.50
2018-06-17T18:14:35.799Z,54.40
2018-06-17T18:17:07.453Z,54.50
2018-06-17T18:19:38.858Z,54.80
2018-06-17T18:22:10.571Z,54.70
2018-06-17T18:24:42.345Z,55.00
2018-06-17T18:27:18.688Z,55.50
2018-06-17T18:29:55.297Z,55.60
2018-06-17T18:32:31.793Z,55.50
2018-06-17T18:35:08.155Z,56.60
2018-06-17T18:37:39.790Z,57.30
2018-06-17T18:40:11.514Z,56.40
2018-06-17T18:42:43.178Z,56.00
2018-06-17T18:45:14.829Z,56.00
2018-06-17T18:47:47.203Z,55.50
2018-06-17T18:50:18.701Z,55.30
2018-06-17T18:52:50.313Z,55.80
2018-06-17T18:55:22.023Z,55.70
2018-06-17T18:57:53.519Z,55.70
2018-06-17T19:00:25.081Z,55.50
2018-06-17T19:02:56.788Z,56.10
2018-06-17T19:05:28.349Z,56.40
2018-06-17T19:07:59.937Z,56.60
2018-06-17T19:10:36.585Z,57.20
2018-06-17T19:13:13.266Z,58.30
2018-06-17T19:15:49.781Z,59.60
2018-06-17T19:18:21.213Z,60.80
2018-06-17T19:20:52.832Z,62.00
2018-06-17T19:23:24.454Z,62.90
2018-06-17T19:25:56.417Z,63.40
2018-06-17T19:28:28.206Z,62.70
2018-06-17T19:30:59.677Z,62.20
2018-06-17T19:33:31.304Z,61.70
2018-06-17T19:36:02.886Z,61.40
2018-06-17T19:38:34.533Z,61.20
2018-06-17T19:41:06.148Z,62.10
2018-06-17T19:43:37.666Z,62.40
2018-06-17T19:46:09.272Z,62.80
2018-06-17T19:48:40.886Z,63.50
2018-06-17T19:52:21.350Z,63.90
2018-06-17T19:54:57.805Z,65.00
2018-06-17T19:57:34.197Z,66.30
2018-06-17T20:00:10.992Z,65.90
2018-06-17T20:02:42.656Z,65.60
2018-06-17T20:05:14.482Z,66.10
2018-06-17T20:07:46.065Z,66.50
2018-06-17T20:10:17.850Z,66.70
2018-06-17T20:12:49.458Z,66.80
2018-06-17T20:15:21.142Z,67.40
2018-06-17T20:17:52.888Z,67.80
2018-06-17T20:20:24.484Z,68.40
2018-06-17T20:22:56.177Z,68.10
2018-06-17T20:25:27.497Z,67.80
2018-06-17T20:27:59.190Z,67.10
2018-06-17T20:33:06.711Z,65.10
2018-06-17T20:35:43.354Z,65.00
2018-06-17T20:38:20.248Z,65.10
2018-06-17T20:40:56.676Z,64.60
2018-06-17T20:43:33.099Z,65.40
2018-06-17T20:46:04.744Z,66.10
2018-06-17T20:48:36.504Z,66.10
2018-06-17T20:53:39.300Z,67.70
2018-06-17T20:56:10.949Z,67.80
2018-06-17T20:58:42.618Z,68.00
2018-06-17T21:01:14.279Z,68.40
2018-06-17T21:03:45.721Z,68.40
2018-06-17T21:06:17.398Z,68.20
2018-06-17T21:08:49.101Z,68.00
2018-06-17T21:11:20.513Z,68.10
2018-06-17T21:13:52.156Z,68.30
2018-06-17T21:16:23.698Z,68.60
2018-06-17T21:19:00.489Z,68.50
2018-06-17T21:21:36.975Z,69.20
2018-06-17T21:24:13.564Z,68.80
2018-06-17T21:26:50.025Z,69.00
2018-06-17T21:29:21.773Z,69.00
2018-06-17T21:31:53.504Z,69.00
2018-06-17T21:34:25.082Z,69.20
2018-06-17T21:36:56.702Z,69.40
2018-06-17T21:39:29.344Z,69.50
2018-06-17T21:42:01.116Z,69.80
2018-06-17T21:44:32.843Z,70.10
2018-06-17T21:47:04.469Z,70.40
2018-06-17T21:49:36.224Z,70.90
2018-06-17T21:52:07.829Z,71.10
2018-06-17T21:54:39.434Z,71.20
2018-06-17T21:57:11.927Z,71.70
2018-06-17T21:59:43.564Z,72.60
2018-06-17T22:02:15.219Z,71.80
2018-06-17T22:04:46.894Z,71.50
2018-06-17T22:07:18.430Z,72.10
2018-06-17T22:09:54.973Z,72.40
2018-06-17T22:12:31.492Z,73.20
2018-06-17T22:15:08.249Z,72.70
2018-06-17T22:17:44.897Z,72.90
2018-06-17T22:20:16.580Z,73.10
2018-06-17T22:22:48.161Z,73.10
2018-06-17T22:25:20.034Z,73.00
2018-06-17T22:27:51.756Z,73.00
2018-06-17T22:30:23.343Z,73.10
2018-06-17T22:32:55.128Z,74.20
2018-06-17T22:35:26.756Z,73.60
2018-06-17T22:37:58.486Z,73.50
2018-06-17T22:40:30.023Z,73.50
2018-06-17T22:43:01.686Z,74.20
2018-06-17T22:45:33.233Z,73.70
2018-06-17T22:48:04.952Z,73.60
2018-06-17T22:50:36.594Z,73.50
2018-06-17T22:53:24.398Z,73.40
2018-06-17T22:55:56.059Z,73.40
2018-06-17T22:58:32.515Z,74.20
2018-06-17T23:01:09.102Z,73.30
2018-06-17T23:03:45.713Z,72.60
2018-06-17T23:06:22.210Z,72.50
2018-06-17T23:08:58.705Z,72.80
2018-06-17T23:11:30.295Z,73.00
2018-06-17T23:14:01.885Z,72.70
2018-06-17T23:16:33.498Z,72.70
2018-06-17T23:19:05.181Z,72.20
2018-06-17T23:21:36.887Z,71.80
2018-06-17T23:24:08.421Z,72.10
2018-06-17T23:26:40.156Z,72.60
2018-06-17T23:29:11.737Z,72.40
2018-06-17T23:31:43.434Z,72.50
2018-06-17T23:34:15.928Z,73.10
2018-06-17T23:36:47.547Z,73.30
2018-06-17T23:39:19.086Z,73.50
2018-06-17T23:41:50.758Z,73.10
2018-06-17T23:44:22.252Z,73.20
2018-06-17T23:46:58.975Z,74.30
2018-06-17T23:49:35.493Z,73.80
2018-06-17T23:52:12.077Z,73.90
2018-06-17T23:54:48.493Z,73.90
2018-06-17T23:57:20.212Z,73.90
2018-06-17T23:59:51.921Z,74.30
